Hlavní strana
METAR-TAF:

METAR-TAF

Letiště :

Hongkong, Čína

Mezinárodní letiště Hongkong

zeměpisná šířka: 22-19N, zeměpisná délka: 113-55E, výška: 9 m

Aktuální stav počasí

Zpráva byla vytvořena před 29 minutami, v 16:00 UTC
Jihovýchodní vítr 6 kt, proměnlivý mezi východním a jižním
Teplota 24°C
Vlhkost vzduchu 78%
Tlak 1013 hPa
Viditelnost: 8000 m
Skoro jasno ve výšce 2300 ft
Polojasno ve výšce 3000 ft

METAR: VHHH 251600Z 13006KT 090V180 8000 FEW023 SCT030 24/20 Q1013 NOSIG

Čas: 00:29 (16:29 UTC)

Předpověď počasí

Zpráva byla vytvořena před 5 hodinami a 29 minutami, v 11:00 UTC
Předpověď platná od 25 v 12 UTC do 26 v 18 UTC
Východní vítr 10 kt
Viditelnost: 7000 m
Skoro jasno ve výšce 1500 ft
Polojasno ve výšce 3000 ft

TAF: VHHH 251100Z 2512/2618 09010KT 7000 FEW015 SCT030 TX26/2606Z TN23/2523Z

Stav a předpovědi počasí z více než 4 000 letišť (zprávy METAR a TAF).

Červené a žluté tečky na mapě představují dostupné meteorologické stanice.

Když kurzor umístíte na tečku, zobrazí se název stanice.

Pak kliknutím zobrazíte stav a předpověď počasí.

Chcete-li změnit mapu, kliknutím na zelené tlačítko se znaménkem +mapu přiblížíte, kliknutím na zelené tlačítko se znaménkem – mapu oddálíte a kliknutím na zelené šipky přejdete na sousední mapy.


METAR-TAF: